createdAt,value
2022-08-18T00:01:15.829Z,17.82
2022-08-18T00:03:55.810Z,17.80
2022-08-18T00:06:29.371Z,17.80
2022-08-18T00:09:05.439Z,17.80
2022-08-18T00:11:41.035Z,17.77
2022-08-18T00:14:21.483Z,17.75
2022-08-18T00:16:54.762Z,17.72
2022-08-18T00:19:46.151Z,17.72
2022-08-18T00:22:16.338Z,17.72
2022-08-18T00:24:48.183Z,17.73
2022-08-18T00:27:28.307Z,17.71
2022-08-18T00:30:00.554Z,17.72
2022-08-18T00:32:33.780Z,17.72
2022-08-18T00:35:18.453Z,17.71
2022-08-18T00:37:47.634Z,17.72
2022-08-18T00:40:21.827Z,17.71
2022-08-18T00:42:53.877Z,17.75
2022-08-18T00:45:27.301Z,17.78
2022-08-18T00:47:56.051Z,17.79
2022-08-18T00:50:34.810Z,17.82
2022-08-18T00:53:13.060Z,17.84
2022-08-18T00:55:53.896Z,17.86
2022-08-18T00:58:32.451Z,17.88
2022-08-18T01:01:06.467Z,17.90
2022-08-18T01:03:40.040Z,17.91
2022-08-18T01:06:40.904Z,17.93
2022-08-18T01:09:09.727Z,17.94
2022-08-18T01:11:39.517Z,17.98
2022-08-18T01:14:09.734Z,18.00
2022-08-18T01:16:57.358Z,18.03
2022-08-18T01:19:45.796Z,18.07
2022-08-18T01:22:47.853Z,18.09
2022-08-18T01:25:37.537Z,18.09
2022-08-18T01:28:06.533Z,18.10
2022-08-18T01:30:50.580Z,18.11
2022-08-18T01:33:19.526Z,18.08
2022-08-18T01:35:50.042Z,18.11
2022-08-18T01:38:21.061Z,18.09
2022-08-18T01:41:27.425Z,18.07
2022-08-18T01:43:39.362Z,18.08
2022-08-18T01:46:09.165Z,18.05
2022-08-18T01:48:39.436Z,18.04
2022-08-18T01:51:09.979Z,18.06
2022-08-18T01:53:38.141Z,18.07
2022-08-18T01:56:07.369Z,18.03
2022-08-18T01:58:36.947Z,17.98
2022-08-18T02:01:06.658Z,17.96
2022-08-18T02:03:38.059Z,17.94
2022-08-18T02:06:11.178Z,17.99
2022-08-18T02:08:43.600Z,17.95
2022-08-18T02:11:15.162Z,17.94
2022-08-18T02:13:43.171Z,17.90
2022-08-18T02:16:11.156Z,17.90
2022-08-18T02:18:48.344Z,17.90
2022-08-18T02:21:20.620Z,17.83
2022-08-18T02:23:53.580Z,17.90
2022-08-18T02:26:23.625Z,17.87
2022-08-18T02:28:52.191Z,17.91
2022-08-18T02:31:22.946Z,17.88
2022-08-18T02:33:52.737Z,17.86
2022-08-18T02:36:25.386Z,17.89
2022-08-18T02:38:59.760Z,17.95
2022-08-18T02:41:29.857Z,17.95
2022-08-18T02:43:58.678Z,17.98
2022-08-18T02:46:29.280Z,18.01
2022-08-18T02:49:00.656Z,18.11
2022-08-18T02:51:28.798Z,18.15
2022-08-18T02:54:00.846Z,18.17
2022-08-18T02:56:40.175Z,18.21
2022-08-18T02:59:15.428Z,18.23
2022-08-18T03:01:47.748Z,18.24
2022-08-18T03:04:22.898Z,18.29
2022-08-18T03:06:52.504Z,18.29
2022-08-18T03:09:20.970Z,18.34
2022-08-18T03:11:49.207Z,18.32
2022-08-18T03:14:17.220Z,18.34
2022-08-18T03:16:54.160Z,18.36
2022-08-18T03:19:28.713Z,18.39
2022-08-18T03:22:02.704Z,18.39
2022-08-18T03:24:33.161Z,18.42
2022-08-18T03:27:06.235Z,18.44
2022-08-18T03:29:36.074Z,18.43
2022-08-18T03:32:06.982Z,18.40
2022-08-18T03:34:35.443Z,18.40
2022-08-18T03:37:03.658Z,18.38
2022-08-18T03:39:31.859Z,18.35
2022-08-18T03:42:01.475Z,18.34
2022-08-18T03:44:32.216Z,18.34
2022-08-18T03:47:03.257Z,18.33
2022-08-18T03:49:34.159Z,18.33
2022-08-18T03:52:03.188Z,18.37
2022-08-18T03:54:34.452Z,18.35
2022-08-18T03:57:02.685Z,18.30
2022-08-18T03:59:32.222Z,18.30
2022-08-18T04:02:03.965Z,18.27
2022-08-18T04:04:32.393Z,18.22
2022-08-18T04:07:08.980Z,18.20
2022-08-18T04:09:38.641Z,18.22
2022-08-18T04:12:16.384Z,18.23
2022-08-18T04:14:48.759Z,18.24
2022-08-18T04:17:24.005Z,18.27
2022-08-18T04:19:54.046Z,18.22
2022-08-18T04:22:23.363Z,18.25
2022-08-18T04:24:51.937Z,18.29
2022-08-18T04:27:21.527Z,18.33
2022-08-18T04:29:50.069Z,18.35
2022-08-18T04:32:19.576Z,18.40
2022-08-18T04:34:49.600Z,18.46
2022-08-18T04:37:17.966Z,18.45
2022-08-18T04:39:46.042Z,18.47
2022-08-18T04:42:15.201Z,18.53
2022-08-18T04:44:43.430Z,18.58
2022-08-18T04:47:13.440Z,18.64
2022-08-18T04:49:41.456Z,18.67
2022-08-18T04:52:40.789Z,18.73
2022-08-18T04:55:11.058Z,18.80
2022-08-18T04:57:39.529Z,18.77
2022-08-18T05:00:09.152Z,18.82
2022-08-18T05:02:38.147Z,18.77
2022-08-18T05:05:07.189Z,18.85
2022-08-18T05:07:35.373Z,18.80
2022-08-18T05:10:04.091Z,18.91
2022-08-18T05:12:32.178Z,18.94
2022-08-18T05:15:00.291Z,18.96
2022-08-18T05:17:30.501Z,18.93
2022-08-18T05:20:01.600Z,18.95
2022-08-18T05:22:31.951Z,19.02
2022-08-18T05:25:00.714Z,19.13
2022-08-18T05:27:35.375Z,19.23
2022-08-18T05:30:05.521Z,19.25
2022-08-18T05:32:48.406Z,19.33
2022-08-18T05:35:31.246Z,19.44
2022-08-18T05:38:26.890Z,19.55
2022-08-18T05:41:27.934Z,19.60
2022-08-18T05:43:57.608Z,19.64
2022-08-18T05:46:55.261Z,19.68
2022-08-18T05:49:26.340Z,19.73
2022-08-18T05:52:01.712Z,19.77
2022-08-18T05:54:57.667Z,19.86
2022-08-18T05:57:31.512Z,19.93
2022-08-18T06:00:04.578Z,20.03
2022-08-18T06:03:00.191Z,20.09
2022-08-18T06:05:32.852Z,20.19
2022-08-18T06:08:22.688Z,20.27
2022-08-18T06:10:51.619Z,20.30
2022-08-18T06:13:20.800Z,20.38
2022-08-18T06:16:29.394Z,20.53
2022-08-18T06:19:26.881Z,20.63
2022-08-18T06:22:12.149Z,20.70
2022-08-18T06:24:40.631Z,20.89
2022-08-18T06:27:22.795Z,20.98
2022-08-18T06:30:05.030Z,21.11
2022-08-18T06:32:53.221Z,21.23
2022-08-18T06:35:38.014Z,21.39
2022-08-18T06:38:46.128Z,21.51
2022-08-18T06:41:38.081Z,21.62
2022-08-18T06:44:29.209Z,21.72
2022-08-18T06:47:10.758Z,21.81
2022-08-18T06:49:49.399Z,21.81
2022-08-18T06:52:23.940Z,21.88
2022-08-18T06:54:54.379Z,21.72
2022-08-18T06:57:28.054Z,21.79
2022-08-18T07:00:00.537Z,21.88
2022-08-18T07:02:47.340Z,22.02
2022-08-18T07:05:15.385Z,22.07
2022-08-18T07:07:44.136Z,22.12
2022-08-18T07:10:15.271Z,22.20
2022-08-18T07:12:44.100Z,22.29
2022-08-18T07:15:13.560Z,22.47
2022-08-18T07:17:44.077Z,22.60
2022-08-18T07:20:18.047Z,22.64
2022-08-18T07:23:00.367Z,22.74
2022-08-18T07:25:39.522Z,22.88
2022-08-18T07:28:26.833Z,22.97
2022-08-18T07:31:17.466Z,23.09
2022-08-18T07:33:56.007Z,23.23
2022-08-18T07:36:33.990Z,23.36
2022-08-18T07:39:14.589Z,23.52
2022-08-18T07:41:44.887Z,23.59
2022-08-18T07:44:19.802Z,23.70
2022-08-18T07:47:01.245Z,23.83
2022-08-18T07:49:35.469Z,23.92
2022-08-18T07:52:24.221Z,24.06
2022-08-18T07:55:24.040Z,24.17
2022-08-18T07:58:01.602Z,24.23
2022-08-18T08:00:58.038Z,24.32
2022-08-18T08:04:01.050Z,24.45
2022-08-18T08:07:06.095Z,24.51
2022-08-18T08:09:52.166Z,24.61
2022-08-18T08:12:35.606Z,24.67
2022-08-18T08:15:27.268Z,24.78
2022-08-18T08:18:07.801Z,24.88
2022-08-18T08:20:57.737Z,24.99
2022-08-18T08:23:52.727Z,25.16
2022-08-18T08:26:26.855Z,25.27
2022-08-18T08:29:18.795Z,25.34
2022-08-18T08:32:22.565Z,25.35
2022-08-18T08:35:05.497Z,25.49
2022-08-18T08:37:44.816Z,25.56
2022-08-18T08:40:28.111Z,25.66
2022-08-18T08:43:09.213Z,25.65
2022-08-18T08:45:45.209Z,25.79
2022-08-18T08:48:38.059Z,25.95
2022-08-18T08:51:38.699Z,25.86
2022-08-18T08:54:29.867Z,25.83
2022-08-18T08:57:01.588Z,25.81
2022-08-18T08:59:29.697Z,25.93
2022-08-18T09:02:32.307Z,26.19
2022-08-18T09:05:13.931Z,26.31
2022-08-18T09:08:14.382Z,26.36
2022-08-18T09:11:07.341Z,26.44
2022-08-18T09:13:57.431Z,26.42
2022-08-18T09:17:00.184Z,26.59
2022-08-18T09:19:48.920Z,26.61
2022-08-18T09:22:24.098Z,26.76
2022-08-18T09:24:56.670Z,26.82
2022-08-18T09:27:53.829Z,26.87
2022-08-18T09:31:09.015Z,27.11
2022-08-18T09:33:48.528Z,27.13
2022-08-18T09:36:35.205Z,27.30
2022-08-18T09:39:47.057Z,27.33
2022-08-18T09:42:30.089Z,27.50
2022-08-18T09:45:02.545Z,27.71
2022-08-18T09:47:32.273Z,27.92
2022-08-18T09:50:06.905Z,28.09
2022-08-18T09:52:39.784Z,28.22
2022-08-18T09:55:28.944Z,28.55
2022-08-18T09:58:47.896Z,28.80
2022-08-18T10:01:40.423Z,28.76
2022-08-18T10:04:14.658Z,28.76
2022-08-18T10:06:48.295Z,28.79
2022-08-18T10:09:46.613Z,28.90
2022-08-18T10:12:42.814Z,29.08
2022-08-18T10:15:39.000Z,29.24
2022-08-18T10:18:34.855Z,29.62
2022-08-18T10:21:12.064Z,29.56
2022-08-18T10:24:32.239Z,29.68
2022-08-18T10:26:56.582Z,29.88
2022-08-18T10:29:26.232Z,30.03
2022-08-18T10:32:02.161Z,30.04
2022-08-18T10:34:51.652Z,29.92
2022-08-18T10:37:33.700Z,30.05
2022-08-18T10:40:13.766Z,30.31
2022-08-18T10:42:48.958Z,30.76
2022-08-18T10:46:24.607Z,30.68
2022-08-18T10:48:41.968Z,30.60
2022-08-18T10:51:57.884Z,30.88
2022-08-18T10:54:45.615Z,30.94
2022-08-18T10:57:40.973Z,31.15
2022-08-18T11:00:19.350Z,31.38
2022-08-18T11:03:42.820Z,31.40
2022-08-18T11:06:18.299Z,31.53
2022-08-18T11:08:55.187Z,31.86
2022-08-18T11:11:40.020Z,32.10
2022-08-18T11:14:18.885Z,32.44
2022-08-18T11:16:49.962Z,32.47
2022-08-18T11:19:23.357Z,32.48
2022-08-18T11:21:53.391Z,32.52
2022-08-18T11:24:22.034Z,32.58
2022-08-18T11:29:43.619Z,32.66
2022-08-18T11:32:31.249Z,32.81
2022-08-18T11:35:11.073Z,33.17
2022-08-18T11:43:39.048Z,32.96
2022-08-18T11:46:30.043Z,32.89
2022-08-18T11:49:01.863Z,33.40
2022-08-18T11:51:34.986Z,33.25
2022-08-18T11:54:31.253Z,33.24
2022-08-18T11:57:40.892Z,33.45
2022-08-18T12:00:57.108Z,33.44
2022-08-18T12:03:45.419Z,33.53
2022-08-18T12:06:26.985Z,33.85
2022-08-18T12:09:07.156Z,34.15
2022-08-18T12:12:01.435Z,33.97
2022-08-18T12:14:51.777Z,34.21
2022-08-18T12:17:19.935Z,33.64
2022-08-18T12:19:50.487Z,33.62
2022-08-18T12:22:26.263Z,33.90
2022-08-18T12:24:55.951Z,34.05
2022-08-18T12:27:31.959Z,34.54
2022-08-18T12:30:03.042Z,34.65
2022-08-18T12:32:46.708Z,34.80
2022-08-18T12:35:21.727Z,35.06
2022-08-18T12:37:59.493Z,34.59
2022-08-18T12:40:29.743Z,34.65
2022-08-18T12:42:58.249Z,34.76
2022-08-18T12:45:28.059Z,35.14
2022-08-18T12:48:00.470Z,35.08
2022-08-18T12:50:31.492Z,35.30
2022-08-18T12:53:02.979Z,35.70
2022-08-18T12:55:44.110Z,35.44
2022-08-18T12:58:13.827Z,35.38
2022-08-18T13:00:43.402Z,35.30
2022-08-18T13:03:11.702Z,35.26
2022-08-18T13:05:40.688Z,34.79
2022-08-18T13:08:30.676Z,34.85
2022-08-18T13:11:14.755Z,35.23
2022-08-18T13:13:53.178Z,35.15
2022-08-18T13:16:39.119Z,35.16
2022-08-18T13:19:18.037Z,35.38
2022-08-18T13:21:46.267Z,35.56
2022-08-18T13:24:16.480Z,35.84
2022-08-18T13:26:52.158Z,35.34
2022-08-18T13:29:22.236Z,35.16
2022-08-18T13:31:57.901Z,35.57
2022-08-18T13:34:29.817Z,35.79
2022-08-18T13:36:59.647Z,35.24
2022-08-18T13:39:33.791Z,35.24
2022-08-18T13:42:26.697Z,34.96
2022-08-18T13:44:55.182Z,35.15
2022-08-18T13:47:29.339Z,35.40
2022-08-18T13:50:00.030Z,35.68
2022-08-18T13:52:41.171Z,35.75
2022-08-18T13:55:16.734Z,35.64
2022-08-18T13:57:50.223Z,35.71
2022-08-18T14:00:29.685Z,35.59
2022-08-18T14:03:03.516Z,35.78
2022-08-18T14:05:36.803Z,35.59
2022-08-18T14:08:21.365Z,35.42
2022-08-18T14:10:53.130Z,35.09
2022-08-18T14:13:24.653Z,35.42
2022-08-18T14:15:56.125Z,35.35
2022-08-18T14:18:29.147Z,35.92
2022-08-18T14:21:22.932Z,36.38
2022-08-18T14:24:14.312Z,36.18
2022-08-18T14:26:50.048Z,36.12
2022-08-18T14:29:45.665Z,36.50
2022-08-18T14:32:17.949Z,36.43
2022-08-18T14:34:50.774Z,36.40
2022-08-18T14:37:20.807Z,36.32
2022-08-18T14:39:53.873Z,36.46
2022-08-18T14:42:41.010Z,36.35
2022-08-18T14:45:27.836Z,36.32
2022-08-18T14:48:06.806Z,36.94
2022-08-18T14:50:36.932Z,37.06
2022-08-18T14:53:06.585Z,37.15
2022-08-18T14:55:35.930Z,36.69
2022-08-18T14:58:07.148Z,37.14
2022-08-18T15:00:53.494Z,37.38
2022-08-18T15:03:31.105Z,37.54
2022-08-18T15:06:04.753Z,37.46
2022-08-18T15:08:38.947Z,37.04
2022-08-18T15:11:19.022Z,37.21
2022-08-18T15:13:55.087Z,37.54
2022-08-18T15:16:26.907Z,37.58
2022-08-18T15:19:04.038Z,37.47
2022-08-18T15:22:10.688Z,37.53
2022-08-18T15:25:02.757Z,38.12
2022-08-18T15:27:42.191Z,38.48
2022-08-18T15:30:19.494Z,38.05
2022-08-18T15:32:49.988Z,37.68
2022-08-18T15:35:19.928Z,37.55
2022-08-18T15:37:51.078Z,37.20
2022-08-18T15:40:35.603Z,37.81
2022-08-18T15:43:10.114Z,38.09
2022-08-18T15:45:56.482Z,38.23
2022-08-18T15:48:28.589Z,38.29
2022-08-18T15:50:57.393Z,38.10
2022-08-18T15:53:45.698Z,37.90
2022-08-18T15:56:23.485Z,37.60
2022-08-18T15:58:54.787Z,37.86
2022-08-18T16:01:32.443Z,38.10
2022-08-18T16:04:04.212Z,38.10
2022-08-18T16:06:34.378Z,37.96
2022-08-18T16:09:05.359Z,37.76
2022-08-18T16:11:34.008Z,37.56
2022-08-18T16:14:04.274Z,37.28
2022-08-18T16:16:36.210Z,37.40
2022-08-18T16:19:07.043Z,37.35
2022-08-18T16:21:39.906Z,36.79
2022-08-18T16:24:08.780Z,36.63
2022-08-18T16:26:36.912Z,36.53
2022-08-18T16:29:05.489Z,35.95
2022-08-18T16:31:36.563Z,35.63
2022-08-18T16:34:06.029Z,35.70
2022-08-18T16:36:35.175Z,35.29
2022-08-18T16:39:04.610Z,34.82
2022-08-18T16:41:34.989Z,34.53
2022-08-18T16:44:03.377Z,33.75
2022-08-18T16:46:32.841Z,33.66
2022-08-18T16:49:07.090Z,33.09
2022-08-18T16:51:36.460Z,32.37
2022-08-18T16:54:05.603Z,31.82
2022-08-18T16:56:35.958Z,31.32
2022-08-18T16:59:22.565Z,30.92
2022-08-18T17:02:09.062Z,30.55
2022-08-18T17:04:37.672Z,30.25
2022-08-18T17:07:07.248Z,30.01
2022-08-18T17:09:38.713Z,29.73
2022-08-18T17:12:07.189Z,29.47
2022-08-18T17:14:37.048Z,29.28
2022-08-18T17:17:05.904Z,29.12
2022-08-18T17:19:35.475Z,28.92
2022-08-18T17:22:07.601Z,28.63
2022-08-18T17:24:35.927Z,28.39
2022-08-18T17:27:25.693Z,28.18
2022-08-18T17:30:07.618Z,27.96
2022-08-18T17:32:46.957Z,27.79
2022-08-18T17:35:28.577Z,27.64
2022-08-18T17:38:07.418Z,27.54
2022-08-18T17:40:54.703Z,27.37
2022-08-18T17:43:26.175Z,27.24
2022-08-18T17:45:57.739Z,27.10
2022-08-18T17:48:41.006Z,26.98
2022-08-18T17:51:33.622Z,26.87
2022-08-18T17:54:27.855Z,26.78
2022-08-18T17:57:12.702Z,26.61
2022-08-18T18:00:11.824Z,26.51
2022-08-18T18:02:42.701Z,26.39
2022-08-18T18:05:15.542Z,26.30
2022-08-18T18:07:50.917Z,26.19
2022-08-18T18:13:34.436Z,25.95
2022-08-18T18:16:25.519Z,25.86
2022-08-18T18:19:01.177Z,25.77
2022-08-18T18:21:55.381Z,25.69
2022-08-18T18:24:30.960Z,25.63
2022-08-18T18:27:00.497Z,25.55
2022-08-18T18:29:37.724Z,25.47
2022-08-18T18:32:28.247Z,25.40
2022-08-18T18:35:15.322Z,25.35
2022-08-18T18:38:03.218Z,25.24
2022-08-18T18:40:39.768Z,25.15
2022-08-18T18:43:34.809Z,25.04
2022-08-18T18:46:23.828Z,24.94
2022-08-18T18:49:13.575Z,24.84
2022-08-18T18:52:01.274Z,24.70
2022-08-18T18:54:53.791Z,24.55
2022-08-18T18:58:04.803Z,24.37
2022-08-18T19:00:59.502Z,24.22
2022-08-18T19:04:04.146Z,24.08
2022-08-18T19:06:45.735Z,23.91
2022-08-18T19:09:54.200Z,23.79
2022-08-18T19:12:31.146Z,23.64
2022-08-18T19:15:14.953Z,23.53
2022-08-18T19:18:05.358Z,23.37
2022-08-18T19:22:01.636Z,23.22
2022-08-18T19:23:49.953Z,23.09
2022-08-18T19:26:27.166Z,23.01
2022-08-18T19:29:11.976Z,22.89
2022-08-18T19:31:51.104Z,22.83
2022-08-18T19:34:36.754Z,22.77
2022-08-18T19:37:41.134Z,22.68
2022-08-18T19:40:21.922Z,22.62
2022-08-18T19:42:59.631Z,22.57
2022-08-18T19:45:32.127Z,22.52
2022-08-18T19:48:18.288Z,22.47
2022-08-18T19:51:12.500Z,22.42
2022-08-18T19:53:52.627Z,22.34
2022-08-18T19:56:34.779Z,22.30
2022-08-18T19:59:19.588Z,22.27
2022-08-18T20:01:52.187Z,22.20
2022-08-18T20:04:27.277Z,22.14
2022-08-18T20:07:14.724Z,22.07
2022-08-18T20:10:01.992Z,21.99
2022-08-18T20:12:38.893Z,21.94
2022-08-18T20:15:17.900Z,21.90
2022-08-18T20:18:03.381Z,21.84
2022-08-18T20:20:34.974Z,21.81
2022-08-18T20:23:34.308Z,21.77
2022-08-18T20:26:02.459Z,21.74
2022-08-18T20:28:39.822Z,21.69
2022-08-18T20:31:16.766Z,21.64
2022-08-18T20:34:26.058Z,21.62
2022-08-18T20:36:58.199Z,21.55
2022-08-18T20:39:41.341Z,21.49
2022-08-18T20:42:36.318Z,21.44
2022-08-18T20:45:13.155Z,21.39
2022-08-18T20:47:59.243Z,21.35
2022-08-18T20:50:39.343Z,21.29
2022-08-18T20:53:43.126Z,21.22
2022-08-18T20:56:44.044Z,21.17
2022-08-18T20:59:22.339Z,21.10
2022-08-18T21:02:06.195Z,21.06
2022-08-18T21:04:40.131Z,20.99
2022-08-18T21:07:25.618Z,20.96
2022-08-18T21:10:43.104Z,20.92
2022-08-18T21:13:11.006Z,20.86
2022-08-18T21:15:39.123Z,20.81
2022-08-18T21:18:19.493Z,20.77
2022-08-18T21:20:50.320Z,20.70
2022-08-18T21:23:25.682Z,20.67
2022-08-18T21:25:59.697Z,20.63
2022-08-18T21:28:34.980Z,20.59
2022-08-18T21:31:30.794Z,20.54
2022-08-18T21:33:56.810Z,20.49
2022-08-18T21:36:31.804Z,20.46
2022-08-18T21:39:14.286Z,20.45
2022-08-18T21:41:46.931Z,20.39
2022-08-18T21:44:34.057Z,20.38
2022-08-18T21:47:10.107Z,20.35
2022-08-18T21:49:38.125Z,20.28
2022-08-18T21:52:07.803Z,20.29
2022-08-18T21:54:37.562Z,20.25
2022-08-18T21:57:22.632Z,20.23
2022-08-18T22:00:20.541Z,20.22
2022-08-18T22:02:52.267Z,20.20
2022-08-18T22:05:58.086Z,20.17
2022-08-18T22:08:24.539Z,20.15
2022-08-18T22:12:01.351Z,20.11
2022-08-18T22:14:53.877Z,20.08
2022-08-18T22:17:25.522Z,20.06
2022-08-18T22:19:54.081Z,20.04
2022-08-18T22:22:58.565Z,20.02
2022-08-18T22:25:26.926Z,19.97
2022-08-18T22:27:57.621Z,19.97
2022-08-18T22:30:25.638Z,19.93
2022-08-18T22:32:54.334Z,19.88
2022-08-18T22:35:23.981Z,19.87
2022-08-18T22:37:52.140Z,19.83
2022-08-18T22:40:21.663Z,19.77
2022-08-18T22:42:50.120Z,19.73
2022-08-18T22:45:20.709Z,19.67
2022-08-18T22:47:49.196Z,19.64
2022-08-18T22:50:17.533Z,19.63
2022-08-18T22:52:48.435Z,19.59
2022-08-18T22:55:21.725Z,19.52
2022-08-18T22:57:55.654Z,19.53
2022-08-18T23:00:26.568Z,19.51
2022-08-18T23:02:55.573Z,19.45
2022-08-18T23:05:23.827Z,19.40
2022-08-18T23:07:52.072Z,19.40
2022-08-18T23:10:21.371Z,19.36
2022-08-18T23:12:49.511Z,19.37
2022-08-18T23:15:19.537Z,19.35
2022-08-18T23:17:49.119Z,19.33
2022-08-18T23:20:19.351Z,19.29
2022-08-18T23:22:48.566Z,19.26
2022-08-18T23:25:17.331Z,19.21
2022-08-18T23:27:45.359Z,19.21
2022-08-18T23:30:15.083Z,19.19
2022-08-18T23:32:44.286Z,19.16
2022-08-18T23:35:12.358Z,19.14
2022-08-18T23:37:41.578Z,19.13
2022-08-18T23:40:16.559Z,19.09
2022-08-18T23:42:44.717Z,19.07
2022-08-18T23:45:12.769Z,19.03
2022-08-18T23:47:41.452Z,19.01
2022-08-18T23:50:11.455Z,18.95
2022-08-18T23:52:40.241Z,18.93
2022-08-18T23:55:12.668Z,18.87
2022-08-18T23:57:40.709Z,18.87
